Time;durP1;ratioP1;P1;durP2;ratioP2;P2;SDS_P1;SDS_P2;PMS_P1;PMS_P2;Temp;Humidity;BMP_temperature;BMP_pressure;BME280_temperature;BME280_humidity;BME280_pressure;Samples;Min_cycle;Max_cycle;Signal;HPM_P1;HPM_P2
2022/04/17 00:01:33;;;;;;;8.20;3.58;;;5.00;99.50;;;;;;5015870;28;20042;-81
2022/04/17 00:03:59;;;;;;;7.38;3.83;;;4.80;99.90;;;;;;5015695;28;20103;-81
2022/04/17 00:06:24;;;;;;;9.32;4.70;;;4.90;99.60;;;;;;5015685;28;20064;-81
2022/04/17 00:08:50;;;;;;;7.15;3.78;;;4.70;99.90;;;;;;5015583;28;20084;-81
2022/04/17 00:11:16;;;;;;;7.60;4.03;;;4.50;99.90;;;;;;5015334;28;20546;-81
2022/04/17 00:13:44;;;;;;;11.98;5.60;;;4.60;99.90;;;;;;5014234;28;20173;-81
2022/04/17 00:16:10;;;;;;;15.13;5.50;;;4.60;99.90;;;;;;5015904;28;20088;-81
2022/04/17 00:18:39;;;;;;;7.68;3.85;;;4.70;99.90;;;;;;5016194;28;20427;-81
2022/04/17 00:21:08;;;;;;;7.05;3.90;;;4.80;99.90;;;;;;5015394;28;20042;-81
2022/04/17 00:23:34;;;;;;;8.93;3.80;;;4.70;99.90;;;;;;5014248;28;20072;-81
2022/04/17 00:26:00;;;;;;;10.15;4.43;;;4.70;99.90;;;;;;5016005;28;20131;-81
2022/04/17 00:28:26;;;;;;;10.60;4.20;;;4.50;99.90;;;;;;5016176;28;20042;-80
2022/04/17 00:30:51;;;;;;;7.63;4.43;;;4.40;99.90;;;;;;5015471;28;20042;-80
2022/04/17 00:33:17;;;;;;;7.40;4.30;;;4.20;99.90;;;;;;5015614;28;20044;-80
2022/04/17 00:35:45;;;;;;;9.73;4.15;;;4.00;99.90;;;;;;5015093;28;20503;-81
2022/04/17 00:38:11;;;;;;;8.80;4.47;;;3.90;99.90;;;;;;5015593;28;20116;-80
2022/04/17 00:40:37;;;;;;;7.78;4.20;;;3.70;99.90;;;;;;5015509;28;20068;-81
2022/04/17 00:43:20;;;;;;;9.38;4.65;;;3.60;99.90;;;;;;5015184;28;20050;-80
2022/04/17 00:45:46;;;;;;;6.32;3.88;;;3.40;99.90;;;;;;5015046;28;20054;-80
2022/04/17 00:48:11;;;;;;;9.45;4.63;;;3.20;99.90;;;;;;5014734;28;20133;-80
2022/04/17 00:50:39;;;;;;;9.43;4.35;;;3.10;99.90;;;;;;5014683;28;20073;-80
2022/04/17 00:53:06;;;;;;;8.10;4.22;;;3.10;99.90;;;;;;5013759;28;20053;-80
2022/04/17 00:55:32;;;;;;;9.65;4.70;;;3.10;99.90;;;;;;5013266;28;20583;-81
2022/04/17 00:57:59;;;;;;;9.20;4.75;;;2.80;99.90;;;;;;5013910;28;20072;-81
2022/04/17 01:00:24;;;;;;;12.95;5.28;;;3.10;99.90;;;;;;5014894;28;20077;-81
2022/04/17 01:02:50;;;;;;;11.75;5.38;;;3.20;99.90;;;;;;5014787;28;20064;-80
2022/04/17 01:05:16;;;;;;;13.60;5.10;;;3.10;99.90;;;;;;5013455;28;20388;-81
2022/04/17 01:07:42;;;;;;;10.20;5.05;;;3.10;99.90;;;;;;5015068;28;20077;-80
2022/04/17 01:10:08;;;;;;;11.45;5.05;;;3.00;99.90;;;;;;5014561;28;20042;-81
2022/04/17 01:12:36;;;;;;;11.43;5.10;;;2.80;99.90;;;;;;5014768;28;20046;-80
2022/04/17 01:15:03;;;;;;;12.30;5.70;;;2.70;99.90;;;;;;5014320;28;20077;-81
2022/04/17 01:17:28;;;;;;;11.63;5.40;;;2.90;99.90;;;;;;5014362;28;20041;-81
2022/04/17 01:19:54;;;;;;;9.32;5.82;;;2.90;99.90;;;;;;5014827;28;20451;-81
2022/04/17 01:22:20;;;;;;;10.48;5.57;;;2.80;99.90;;;;;;5014418;28;20038;-81
2022/04/17 01:27:30;;;;;;;15.23;6.47;;;2.70;99.90;;;;;;5014373;28;20057;-82
2022/04/17 01:29:56;;;;;;;8.15;5.28;;;2.90;99.90;;;;;;5013624;28;20049;-81
2022/04/17 01:32:22;;;;;;;9.43;5.07;;;2.70;99.90;;;;;;5013272;28;20081;-81
2022/04/17 01:34:49;;;;;;;12.20;6.10;;;2.60;99.90;;;;;;5014648;28;20117;-81
2022/04/17 01:37:15;;;;;;;12.70;6.53;;;2.50;99.90;;;;;;5014476;28;20046;-81
2022/04/17 01:39:41;;;;;;;9.93;5.88;;;2.50;99.90;;;;;;5014391;28;20089;-81
2022/04/17 01:42:07;;;;;;;12.65;6.47;;;2.40;99.90;;;;;;5012768;28;20073;-81
2022/04/17 01:44:33;;;;;;;11.57;5.15;;;2.10;99.90;;;;;;5014037;28;20049;-81
2022/04/17 01:47:01;;;;;;;12.07;6.28;;;2.20;99.90;;;;;;5014420;28;20397;-81
2022/04/17 01:49:26;;;;;;;21.48;7.70;;;2.10;99.90;;;;;;5012720;28;20042;-81
2022/04/17 01:51:53;;;;;;;13.20;5.80;;;2.30;99.90;;;;;;5012808;28;20050;-81
2022/04/17 01:54:21;;;;;;;12.55;6.70;;;2.20;99.90;;;;;;5013881;28;20042;-81
2022/04/17 01:56:50;;;;;;;12.43;6.50;;;2.30;99.90;;;;;;5013765;28;20104;-81
2022/04/17 01:59:17;;;;;;;10.38;5.97;;;2.20;99.90;;;;;;5014564;28;20479;-80
2022/04/17 02:01:43;;;;;;;9.35;5.35;;;2.10;99.90;;;;;;5013930;28;20057;-81
2022/04/17 02:04:10;;;;;;;12.73;5.90;;;2.00;99.90;;;;;;5014313;28;20038;-81
2022/04/17 02:06:39;;;;;;;10.80;6.13;;;1.90;99.90;;;;;;5014618;28;20072;-81
2022/04/17 02:09:07;;;;;;;12.48;6.15;;;1.80;99.90;;;;;;5018200;28;20077;-81
2022/04/17 02:11:33;;;;;;;9.77;5.78;;;1.70;99.90;;;;;;5017885;28;20045;-81
2022/04/17 02:13:58;;;;;;;11.32;6.22;;;1.50;99.90;;;;;;5017617;28;20038;-81
2022/04/17 02:16:24;;;;;;;10.30;6.22;;;1.50;99.90;;;;;;5017457;28;20051;-81
2022/04/17 02:18:52;;;;;;;12.60;6.35;;;2.00;99.90;;;;;;5017303;28;20038;-81
2022/04/17 02:21:18;;;;;;;10.18;5.60;;;1.40;99.90;;;;;;5017241;28;20176;-81
2022/04/17 02:23:44;;;;;;;10.52;5.97;;;1.30;99.90;;;;;;5017412;28;20042;-82
2022/04/17 02:26:13;;;;;;;14.35;6.15;;;1.20;99.90;;;;;;5017388;28;20042;-81
2022/04/17 02:28:40;;;;;;;9.95;5.38;;;1.20;99.90;;;;;;5017011;28;20037;-81
2022/04/17 02:31:07;;;;;;;14.82;7.65;;;1.20;99.90;;;;;;5017012;28;20540;-81
2022/04/17 02:33:33;;;;;;;11.43;7.78;;;1.30;99.90;;;;;;5017664;28;20046;-82
2022/04/17 02:35:59;;;;;;;10.48;6.30;;;1.50;99.90;;;;;;5015682;28;20049;-81
2022/04/17 02:38:24;;;;;;;13.10;6.70;;;1.20;99.90;;;;;;5016998;28;20107;-81
2022/04/17 02:40:51;;;;;;;11.63;6.18;;;1.10;99.90;;;;;;5017098;28;20049;-81
2022/04/17 02:43:19;;;;;;;11.32;6.43;;;1.10;99.90;;;;;;5016597;28;20054;-81
2022/04/17 02:45:45;;;;;;;11.30;7.13;;;1.10;99.90;;;;;;5016921;28;20053;-81
2022/04/17 02:48:11;;;;;;;11.55;7.03;;;0.90;99.90;;;;;;5016728;28;20052;-82
2022/04/17 02:50:40;;;;;;;15.60;6.50;;;0.90;99.90;;;;;;5016698;28;20471;-81
2022/04/17 02:53:06;;;;;;;12.85;6.95;;;0.90;99.90;;;;;;5016840;28;20038;-81
2022/04/17 02:55:31;;;;;;;12.63;7.30;;;1.00;99.90;;;;;;5017389;28;20046;-81
2022/04/17 02:57:57;;;;;;;12.10;6.97;;;1.10;99.90;;;;;;5016873;28;20050;-81
2022/04/17 03:00:31;;;;;;;15.20;7.55;;;1.10;99.90;;;;;;5018025;28;20049;-83
2022/04/17 03:05:55;;;;;;;12.43;7.28;;;0.90;99.90;;;;;;5017187;28;20085;-82
2022/04/17 03:08:21;;;;;;;13.55;6.82;;;0.90;99.90;;;;;;5017310;28;20073;-82
2022/04/17 03:10:46;;;;;;;12.05;6.25;;;0.90;99.90;;;;;;5017497;28;20038;-82
2022/04/17 03:13:12;;;;;;;11.45;7.53;;;1.00;99.90;;;;;;5017697;28;20487;-82
2022/04/17 03:15:39;;;;;;;14.20;6.75;;;0.90;99.90;;;;;;5017245;28;20038;-80
2022/04/17 03:18:08;;;;;;;12.07;6.93;;;1.10;99.90;;;;;;5016422;28;20046;-80
2022/04/17 03:20:34;;;;;;;14.43;7.78;;;0.80;99.90;;;;;;5017077;28;20096;-82
2022/04/17 03:23:00;;;;;;;14.63;6.72;;;0.70;99.90;;;;;;5017030;28;20065;-83
2022/04/17 03:25:26;;;;;;;11.63;6.88;;;0.60;99.90;;;;;;5016677;28;20053;-82
2022/04/17 03:27:53;;;;;;;13.63;8.27;;;0.70;99.90;;;;;;5016655;28;20139;-82
2022/04/17 03:30:19;;;;;;;16.50;8.93;;;0.70;99.90;;;;;;5017278;28;20492;-82
2022/04/17 03:32:46;;;;;;;14.07;7.75;;;0.70;99.90;;;;;;5018868;28;20045;-82
2022/04/17 03:35:13;;;;;;;14.45;7.95;;;0.80;99.90;;;;;;5018901;28;20570;-83
2022/04/17 03:37:42;;;;;;;12.40;7.13;;;0.70;99.90;;;;;;5018958;28;20054;-82
2022/04/17 03:40:09;;;;;;;11.90;7.43;;;0.60;99.90;;;;;;5018994;28;20080;-81
2022/04/17 03:42:35;;;;;;;14.93;8.70;;;0.50;99.90;;;;;;5017686;28;20060;-82
2022/04/17 03:45:02;;;;;;;14.80;7.55;;;0.40;99.90;;;;;;5017091;28;20053;-82
2022/04/17 03:47:28;;;;;;;16.75;8.80;;;0.30;99.90;;;;;;5017821;28;20080;-82
2022/04/17 03:49:54;;;;;;;14.15;8.98;;;0.30;99.90;;;;;;5015120;28;20073;-82
2022/04/17 03:52:19;;;;;;;16.30;8.10;;;0.20;99.90;;;;;;5016198;28;20401;-82
2022/04/17 03:54:45;;;;;;;13.35;7.68;;;0.20;99.90;;;;;;5016110;28;20073;-82
2022/04/17 03:57:11;;;;;;;22.92;9.93;;;0.30;99.90;;;;;;5016209;28;20038;-82
2022/04/17 03:59:37;;;;;;;13.30;8.05;;;0.30;99.90;;;;;;5016058;28;20049;-82
2022/04/17 04:02:03;;;;;;;13.70;7.72;;;0.30;99.90;;;;;;5016919;28;20045;-82
2022/04/17 04:04:29;;;;;;;15.10;9.63;;;0.30;99.90;;;;;;5016398;28;20180;-82
2022/04/17 04:06:55;;;;;;;15.98;9.18;;;0.30;99.90;;;;;;5016164;28;20108;-82
2022/04/17 04:09:20;;;;;;;15.13;9.52;;;0.20;99.90;;;;;;5015027;28;20034;-82
2022/04/17 04:11:47;;;;;;;15.38;8.18;;;0.30;99.90;;;;;;5014535;28;20129;-82
2022/04/17 04:14:12;;;;;;;12.63;8.73;;;0.20;99.90;;;;;;5013563;28;20049;-82
2022/04/17 04:16:39;;;;;;;20.40;8.90;;;0.10;99.90;;;;;;5014173;28;20104;-82
2022/04/17 04:19:05;;;;;;;12.38;7.85;;;0.10;99.90;;;;;;5013967;28;20042;-82
2022/04/17 04:21:31;;;;;;;13.27;8.23;;;0.30;99.90;;;;;;5014212;28;20412;-82
2022/04/17 04:23:56;;;;;;;17.02;8.23;;;0.20;99.90;;;;;;5014401;28;20077;-82
2022/04/17 04:26:22;;;;;;;18.45;8.60;;;0.10;99.90;;;;;;5012761;28;20404;-82
2022/04/17 04:28:47;;;;;;;14.27;8.88;;;0.20;99.90;;;;;;5013878;28;20404;-82
2022/04/17 04:31:15;;;;;;;15.48;9.30;;;0.40;99.90;;;;;;5014749;28;20042;-82
2022/04/17 04:33:42;;;;;;;17.92;8.85;;;0.40;99.90;;;;;;5014725;28;20404;-82
2022/04/17 04:36:11;;;;;;;15.40;9.40;;;0.40;99.90;;;;;;5014101;28;20515;-82
2022/04/17 04:38:37;;;;;;;16.63;8.73;;;0.30;99.90;;;;;;5014435;28;20045;-79
2022/04/17 04:41:03;;;;;;;17.35;9.52;;;0.40;99.90;;;;;;5014343;28;20136;-80
2022/04/17 04:43:29;;;;;;;15.15;9.25;;;0.40;99.90;;;;;;5014425;28;20065;-82
2022/04/17 04:46:07;;;;;;;17.95;9.82;;;0.30;99.90;;;;;;5013852;28;20033;-82
2022/04/17 04:51:26;;;;;;;16.92;9.65;;;0.50;99.90;;;;;;5014267;28;20050;-82
2022/04/17 04:53:52;;;;;;;28.17;12.43;;;0.50;99.90;;;;;;5014122;28;20085;-82
2022/04/17 04:56:19;;;;;;;17.80;10.82;;;0.80;99.90;;;;;;5013894;28;20046;-80
2022/04/17 04:58:47;;;;;;;15.80;10.18;;;1.20;99.90;;;;;;5012633;28;20095;-81
2022/04/17 05:01:13;;;;;;;14.55;9.52;;;1.40;99.90;;;;;;5014280;28;20088;-80
2022/04/17 05:03:39;;;;;;;19.33;10.63;;;1.40;99.90;;;;;;5014017;28;20046;-80
2022/04/17 05:06:07;;;;;;;22.20;9.77;;;1.60;99.90;;;;;;5013393;28;20100;-81
2022/04/17 05:08:33;;;;;;;17.60;9.35;;;1.70;99.90;;;;;;5012409;28;20042;-81
2022/04/17 05:10:59;;;;;;;19.48;9.63;;;1.90;99.90;;;;;;5013696;28;20108;-81
2022/04/17 05:13:25;;;;;;;15.63;10.25;;;1.90;99.90;;;;;;5013816;28;20496;-81
2022/04/17 05:15:50;;;;;;;15.65;9.02;;;2.20;99.90;;;;;;5013298;28;20049;-81
2022/04/17 05:18:16;;;;;;;20.55;10.45;;;2.40;99.90;;;;;;5013871;28;20042;-81
2022/04/17 05:20:41;;;;;;;15.88;9.45;;;3.00;99.90;;;;;;5013964;28;20085;-81
2022/04/17 05:23:19;;;;;;;16.00;10.60;;;2.70;99.90;;;;;;5013760;28;20053;-81
2022/04/17 05:25:50;;;;;;;16.80;9.70;;;2.70;99.90;;;;;;5013691;28;20069;-81
2022/04/17 05:28:15;;;;;;;16.50;10.30;;;2.70;99.90;;;;;;5013554;28;20049;-81
2022/04/17 05:30:42;;;;;;;15.48;9.48;;;2.70;99.90;;;;;;5012456;28;20042;-81
2022/04/17 05:33:08;;;;;;;15.85;9.82;;;2.70;99.90;;;;;;5013952;28;20038;-81
2022/04/17 05:35:33;;;;;;;15.82;9.45;;;2.80;99.90;;;;;;5013281;28;20429;-81
2022/04/17 05:37:59;;;;;;;20.17;9.55;;;3.10;99.90;;;;;;5013668;28;20049;-81
2022/04/17 05:40:25;;;;;;;16.65;9.30;;;3.00;99.90;;;;;;5013520;28;20042;-81
2022/04/17 05:42:50;;;;;;;16.73;10.43;;;3.20;99.90;;;;;;5017192;28;20050;-81
2022/04/17 05:45:17;;;;;;;14.52;8.93;;;3.20;99.90;;;;;;5017290;28;20041;-81
2022/04/17 05:47:43;;;;;;;15.85;8.60;;;3.30;99.90;;;;;;5017484;28;20084;-81
2022/04/17 05:50:09;;;;;;;16.65;9.98;;;3.50;99.90;;;;;;5016375;28;20057;-81
2022/04/17 05:52:34;;;;;;;15.52;9.23;;;3.50;99.90;;;;;;5015862;28;20046;-81
2022/04/17 05:55:00;;;;;;;14.68;9.27;;;3.60;99.90;;;;;;5017124;28;20042;-81
2022/04/17 05:57:26;;;;;;;16.35;9.23;;;3.80;99.90;;;;;;5017229;28;20116;-81
2022/04/17 05:59:52;;;;;;;18.40;9.68;;;4.00;99.90;;;;;;5017257;28;20496;-81
2022/04/17 06:02:18;;;;;;;20.00;8.82;;;3.90;99.90;;;;;;5017205;28;20038;-81
2022/04/17 06:04:44;;;;;;;17.33;9.77;;;3.90;99.90;;;;;;5015859;28;20099;-81
2022/04/17 06:07:09;;;;;;;15.05;9.30;;;4.40;99.90;;;;;;5016054;28;20049;-81
2022/04/17 06:09:35;;;;;;;17.08;9.93;;;4.40;99.90;;;;;;5016212;28;20050;-82
2022/04/17 06:12:01;;;;;;;15.90;9.50;;;4.40;99.90;;;;;;5018009;28;20044;-82
2022/04/17 06:14:26;;;;;;;18.70;9.45;;;4.80;99.90;;;;;;5017372;28;20053;-82
2022/04/17 06:16:52;;;;;;;19.13;8.65;;;5.80;99.90;;;;;;5017236;28;20038;-82
2022/04/17 06:19:18;;;;;;;14.60;8.77;;;6.80;99.90;;;;;;5017396;28;20041;-82
2022/04/17 06:21:43;;;;;;;14.05;8.50;;;7.70;99.90;;;;;;5017551;28;20515;-82
2022/04/17 06:24:09;;;;;;;19.27;8.00;;;8.20;99.90;;;;;;5017109;28;20420;-82
2022/04/17 06:26:35;;;;;;;14.27;7.75;;;8.70;95.70;;;;;;5018073;28;20057;-81
2022/04/17 06:29:07;;;;;;;14.18;7.68;;;8.80;93.30;;;;;;5017009;28;20456;-81
2022/04/17 06:31:33;;;;;;;14.07;7.75;;;8.90;91.80;;;;;;5018803;28;20121;-81
2022/04/17 06:33:59;;;;;;;15.15;8.02;;;8.80;95.10;;;;;;5020468;28;20527;-82
2022/04/17 06:36:24;;;;;;;13.65;8.88;;;9.40;88.90;;;;;;5019166;28;20400;-81
2022/04/17 06:38:50;;;;;;;19.08;9.07;;;8.80;89.80;;;;;;5016202;28;20189;-82
2022/04/17 06:41:15;;;;;;;16.90;8.88;;;9.40;90.30;;;;;;5017463;28;20400;-82
2022/04/17 06:43:41;;;;;;;17.10;8.32;;;9.80;89.90;;;;;;5017331;28;20081;-82
2022/04/17 06:46:07;;;;;;;13.95;8.50;;;10.50;83.10;;;;;;5000043;28;20049;-81
2022/04/17 06:48:32;;;;;;;14.10;8.35;;;10.40;71.90;;;;;;5017013;28;20045;-81
2022/04/17 06:50:58;;;;;;;13.60;8.48;;;10.40;68.80;;;;;;5016911;28;20042;-81
2022/04/17 06:53:24;;;;;;;14.65;8.85;;;10.70;62.50;;;;;;4999044;28;20469;-81
2022/04/17 06:55:52;;;;;;;14.75;8.65;;;11.20;64.20;;;;;;5016542;28;20097;-81
2022/04/17 06:58:19;;;;;;;13.57;8.15;;;11.30;54.30;;;;;;5015835;28;20046;-82
2022/04/17 07:00:46;;;;;;;13.35;7.68;;;11.70;62.20;;;;;;5016047;28;20042;-82
2022/04/17 07:03:14;;;;;;;14.73;8.20;;;12.10;43.20;;;;;;5014201;28;20559;-82
2022/04/17 07:05:41;;;;;;;15.75;9.15;;;12.60;47.00;;;;;;5016256;28;20041;-82
2022/04/17 07:08:09;;;;;;;15.20;8.18;;;12.90;46.10;;;;;;5016279;28;20042;-82
2022/04/17 07:10:37;;;;;;;13.82;8.15;;;12.40;36.10;;;;;;5015725;28;20129;-82
2022/04/17 07:13:03;;;;;;;15.93;8.30;;;13.00;34.50;;;;;;5014513;28;20041;-81
2022/04/17 07:15:29;;;;;;;12.65;7.90;;;13.10;35.80;;;;;;5015354;28;20103;-82
2022/04/17 07:17:55;;;;;;;16.00;8.73;;;12.90;28.90;;;;;;5015654;28;20049;-81
2022/04/17 07:20:22;;;;;;;16.08;8.02;;;13.20;35.10;;;;;;5015552;28;20749;-82
2022/04/17 07:22:49;;;;;;;13.85;8.70;;;13.10;30.80;;;;;;5016026;28;20401;-82
2022/04/17 07:25:15;;;;;;;14.23;7.85;;;14.40;29.60;;;;;;5015715;28;20049;-82
2022/04/17 07:27:47;;;;;;;14.68;8.13;;;14.90;21.10;;;;;;5013990;28;20500;-82
2022/04/17 07:30:16;;;;;;;14.60;8.48;;;13.70;22.50;;;;;;5014993;28;20056;-82
2022/04/17 07:32:44;;;;;;;12.32;7.53;;;15.20;21.50;;;;;;5015160;28;20505;-81
2022/04/17 07:35:11;;;;;;;12.27;7.50;;;14.20;20.50;;;;;;5014725;28;20493;-82
2022/04/17 07:37:37;;;;;;;12.18;7.43;;;14.70;20.10;;;;;;5014625;28;20042;-81
2022/04/17 07:40:10;;;;;;;14.35;8.38;;;14.70;19.50;;;;;;5013779;28;20399;-82
2022/04/17 07:42:36;;;;;;;10.80;7.53;;;14.50;14.80;;;;;;5015036;28;20385;-82
2022/04/17 07:45:02;;;;;;;12.43;7.15;;;14.90;17.40;;;;;;5013694;28;20060;-82
2022/04/17 07:47:28;;;;;;;13.02;6.88;;;15.20;11.40;;;;;;4997746;28;20129;-82
2022/04/17 07:49:54;;;;;;;10.48;6.75;;;15.30;10.30;;;;;;5015268;28;20124;-82
2022/04/17 07:52:19;;;;;;;11.18;7.35;;;15.60;10.10;;;;;;5014168;28;20489;-82
2022/04/17 07:54:46;;;;;;;12.85;7.05;;;15.30;10.10;;;;;;5013957;28;20072;-82
2022/04/17 07:57:14;;;;;;;10.90;6.95;;;16.20;8.90;;;;;;5013665;28;20077;-82
2022/04/17 07:59:41;;;;;;;11.95;6.25;;;16.40;5.70;;;;;;5015125;28;20045;-83
2022/04/17 08:02:22;;;;;;;10.65;6.70;;;17.40;1.50;;;;;;5013727;28;20042;-83
2022/04/17 08:04:51;;;;;;;9.57;5.93;;;17.50;1.50;;;;;;5013489;28;20038;-83
2022/04/17 08:07:23;;;;;;;11.18;6.35;;;17.60;1.00;;;;;;5015105;28;20046;-83
2022/04/17 08:09:48;;;;;;;10.23;5.72;;;17.80;1.00;;;;;;5013528;28;20172;-83
2022/04/17 08:12:14;;;;;;;10.07;6.10;;;18.30;1.00;;;;;;5014942;28;20084;-83
2022/04/17 08:14:40;;;;;;;9.25;5.78;;;18.90;1.00;;;;;;5030375;28;20092;-83
2022/04/17 08:17:05;;;;;;;10.63;5.50;;;18.80;1.00;;;;;;5013642;28;20041;-83
2022/04/17 08:19:35;;;;;;;8.15;5.60;;;19.40;1.00;;;;;;5013508;28;20038;-83
2022/04/17 08:22:02;;;;;;;8.82;5.80;;;18.30;1.00;;;;;;4997044;28;20042;-83
2022/04/17 08:24:30;;;;;;;8.50;5.95;;;17.50;1.00;;;;;;5013336;28;20046;-83
2022/04/17 08:26:59;;;;;;;8.98;5.93;;;17.80;1.00;;;;;;5014390;28;20057;-83
2022/04/17 08:29:24;;;;;;;10.13;5.47;;;17.00;1.00;;;;;;5013172;28;20551;-83
2022/04/17 08:31:50;;;;;;;10.52;6.40;;;17.00;1.00;;;;;;4996619;28;20045;-83
2022/04/17 08:34:15;;;;;;;11.65;6.28;;;17.40;1.00;;;;;;5014055;28;20096;-82
2022/04/17 08:36:41;;;;;;;11.50;6.45;;;17.30;1.00;;;;;;5013198;28;20103;-83
2022/04/17 08:39:09;;;;;;;8.95;5.60;;;17.30;1.00;;;;;;5028603;28;20057;-83
2022/04/17 08:41:34;;;;;;;9.05;5.28;;;16.40;1.00;;;;;;5014038;28;20046;-83
2022/04/17 08:44:00;;;;;;;8.43;6.45;;;16.40;1.00;;;;;;5013035;28;20060;-83
2022/04/17 08:46:26;;;;;;;9.70;5.22;;;17.30;1.00;;;;;;5012290;28;20049;-83
2022/04/17 08:48:51;;;;;;;8.00;5.10;;;17.20;1.00;;;;;;5012499;28;20045;-83
2022/04/17 08:51:22;;;;;;;9.27;5.40;;;18.00;1.00;;;;;;5013619;28;20099;-83
2022/04/17 08:53:49;;;;;;;10.38;5.55;;;17.60;1.00;;;;;;5012155;28;20037;-83
2022/04/17 08:56:15;;;;;;;13.27;5.97;;;17.60;1.00;;;;;;5013037;28;20053;-82
2022/04/17 08:58:40;;;;;;;8.50;5.90;;;16.20;1.00;;;;;;5012066;28;20042;-83
2022/04/17 09:01:09;;;;;;;8.45;5.32;;;17.40;1.00;;;;;;5013295;28;20038;-83
2022/04/17 09:03:34;;;;;;;8.77;5.32;;;17.90;1.00;;;;;;5028662;28;20081;-83
2022/04/17 09:06:00;;;;;;;9.05;5.60;;;17.80;1.00;;;;;;5024874;28;20042;-82
2022/04/17 09:08:28;;;;;;;9.02;5.30;;;16.90;1.00;;;;;;5032543;28;20050;-82
2022/04/17 09:10:55;;;;;;;8.90;5.47;;;16.80;1.00;;;;;;5031408;28;20061;-82
2022/04/17 09:13:32;;;;;;;9.48;5.47;;;16.70;1.00;;;;;;5025370;28;20117;-81
2022/04/17 09:15:59;;;;;;;6.55;4.30;;;17.30;1.00;;;;;;5014741;28;20396;-82
2022/04/17 09:18:28;;;;;;;7.65;4.70;;;17.10;1.00;;;;;;5017575;28;20042;-82
2022/04/17 09:20:54;;;;;;;8.88;5.47;;;17.00;1.00;;;;;;5016494;28;20061;-82
2022/04/17 09:23:36;;;;;;;8.48;5.63;;;17.00;1.00;;;;;;5016105;28;20100;-82
2022/04/17 09:26:03;;;;;;;7.82;5.00;;;17.00;1.00;;;;;;5017601;28;20125;-82
2022/04/17 09:28:37;;;;;;;6.78;4.55;;;16.80;1.00;;;;;;5016766;28;20046;-82
2022/04/17 09:31:12;;;;;;;10.07;4.75;;;17.30;1.00;;;;;;5017183;28;20042;-82
2022/04/17 09:33:41;;;;;;;7.32;4.53;;;17.60;1.00;;;;;;5015505;28;20061;-82
2022/04/17 09:36:08;;;;;;;8.13;5.13;;;17.50;1.00;;;;;;5016686;28;20443;-81
2022/04/17 09:38:34;;;;;;;8.93;4.68;;;17.30;1.00;;;;;;5016090;28;20034;-82
2022/04/17 09:41:07;;;;;;;11.07;5.30;;;18.10;1.00;;;;;;5015592;28;20409;-82
2022/04/17 09:43:37;;;;;;;6.57;4.70;;;18.00;1.00;;;;;;5015209;28;20133;-82
2022/04/17 09:46:07;;;;;;;7.13;4.75;;;18.20;1.00;;;;;;5017052;28;20077;-82
2022/04/17 09:48:38;;;;;;;7.00;4.40;;;18.30;1.00;;;;;;5017044;28;20377;-82
2022/04/17 09:51:19;;;;;;;6.55;4.22;;;17.70;1.00;;;;;;5017146;28;20038;-81
2022/04/17 09:53:59;;;;;;;5.93;3.17;;;17.00;1.00;;;;;;5016920;28;20460;-82
2022/04/17 09:56:33;;;;;;;6.15;3.95;;;16.90;1.00;;;;;;5015330;28;20058;-81
2022/04/17 09:58:59;;;;;;;13.23;6.75;;;16.70;1.00;;;;;;5015231;28;20462;-82
2022/04/17 10:01:27;;;;;;;9.60;4.88;;;16.20;1.00;;;;;;5015181;28;20042;-82
2022/04/17 10:03:54;;;;;;;7.78;4.50;;;16.60;1.00;;;;;;5016677;28;20046;-82
2022/04/17 10:06:23;;;;;;;7.63;4.90;;;16.40;1.00;;;;;;5015904;28;20420;-81
2022/04/17 10:08:50;;;;;;;8.98;4.88;;;16.90;1.00;;;;;;5016426;28;20049;-81
2022/04/17 10:11:18;;;;;;;10.70;5.60;;;16.50;1.00;;;;;;5016160;28;20045;-82
2022/04/17 10:13:45;;;;;;;8.43;5.53;;;17.00;1.00;;;;;;5015443;28;20060;-82
2022/04/17 10:16:12;;;;;;;7.78;4.07;;;16.80;1.00;;;;;;5016292;28;20049;-81
2022/04/17 10:18:39;;;;;;;9.18;4.72;;;16.60;1.00;;;;;;5015973;28;20081;-81
2022/04/17 10:21:09;;;;;;;8.55;5.28;;;17.20;2.40;;;;;;5015667;28;20330;-82
2022/04/17 10:23:37;;;;;;;6.60;3.95;;;17.50;1.00;;;;;;5014829;28;20441;-82
2022/04/17 10:26:04;;;;;;;8.27;4.25;;;17.40;1.00;;;;;;5016154;28;20100;-81
2022/04/17 10:28:37;;;;;;;6.63;4.38;;;17.40;1.00;;;;;;5014975;28;20046;-81
2022/04/17 10:31:14;;;;;;;7.78;4.72;;;17.40;1.00;;;;;;5016029;28;20419;-81
2022/04/17 10:34:07;;;;;;;6.80;3.45;;;16.60;1.00;;;;;;5031105;28;20485;-81
2022/04/17 10:36:51;;;;;;;9.02;3.13;;;16.70;1.00;;;;;;5015680;28;20382;-82
2022/04/17 10:39:28;;;;;;;7.30;3.90;;;17.00;1.00;;;;;;5016062;28;20404;-81
2022/04/17 10:41:53;;;;;;;6.57;3.88;;;16.40;1.00;;;;;;5014883;28;20480;-81
2022/04/17 10:44:19;;;;;;;7.70;4.18;;;16.60;1.00;;;;;;5015652;28;20127;-81
2022/04/17 10:46:51;;;;;;;7.05;4.20;;;16.70;1.00;;;;;;5014094;28;20436;-82
2022/04/17 10:49:22;;;;;;;6.68;3.08;;;16.90;1.00;;;;;;5014602;28;20038;-82
2022/04/17 10:51:52;;;;;;;7.63;3.78;;;17.20;1.00;;;;;;5015756;28;20069;-82
2022/04/17 10:54:18;;;;;;;5.90;2.90;;;17.20;1.00;;;;;;5015556;28;20030;-81
2022/04/17 10:56:56;;;;;;;6.82;3.38;;;17.30;1.00;;;;;;5014359;28;20137;-81
2022/04/17 10:59:22;;;;;;;7.63;4.25;;;17.00;1.00;;;;;;5015294;28;20508;-81
2022/04/17 11:01:59;;;;;;;6.55;3.72;;;17.50;1.00;;;;;;5015405;28;20225;-82
2022/04/17 11:04:26;;;;;;;5.72;3.20;;;17.70;1.00;;;;;;4999141;28;20551;-81
2022/04/17 11:07:14;;;;;;;5.45;3.17;;;17.60;1.00;;;;;;5014724;28;20133;-82
2022/04/17 11:09:42;;;;;;;5.40;3.47;;;17.20;1.00;;;;;;5013505;28;20046;-81
2022/04/17 11:12:10;;;;;;;5.25;3.25;;;17.50;1.00;;;;;;5015269;28;20421;-81
2022/04/17 11:14:39;;;;;;;5.93;3.17;;;16.90;1.00;;;;;;5014503;28;20077;-81
2022/04/17 11:17:08;;;;;;;7.93;3.20;;;17.20;1.00;;;;;;5015247;28;20138;-81
2022/04/17 11:19:36;;;;;;;7.78;3.90;;;17.70;1.00;;;;;;4997629;28;20089;-81
2022/04/17 11:22:04;;;;;;;7.32;2.97;;;17.20;1.00;;;;;;5013939;28;20065;-81
2022/04/17 11:24:55;;;;;;;7.35;3.53;;;18.00;1.00;;;;;;5015109;28;20041;-82
2022/04/17 11:28:02;;;;;;;6.10;3.35;;;18.10;1.00;;;;;;5009382;28;20082;-81
2022/04/17 11:30:27;;;;;;;7.50;3.75;;;17.70;1.00;;;;;;5014711;28;20060;-81
2022/04/17 11:32:55;;;;;;;6.97;3.55;;;17.60;1.00;;;;;;5013263;28;20050;-81
2022/04/17 11:35:25;;;;;;;7.30;3.70;;;18.40;1.00;;;;;;5012776;28;20045;-81
2022/04/17 11:38:01;;;;;;;5.78;3.20;;;18.90;1.00;;;;;;5013107;28;20050;-81
2022/04/17 11:40:27;;;;;;;;;;;18.30;1.00;;;;;;5014758;28;20038;-81
2022/04/17 11:42:55;;;;;;;5.35;3.22;;;18.40;1.00;;;;;;5013610;28;19921;-81
2022/04/17 11:45:26;;;;;;;6.10;3.60;;;18.60;1.00;;;;;;5014298;28;20058;-81
2022/04/17 11:47:53;;;;;;;7.80;3.25;;;18.30;1.00;;;;;;5029957;28;20042;-81
2022/04/17 11:50:27;;;;;;;5.30;3.30;;;18.30;1.00;;;;;;5014307;28;20046;-81
2022/04/17 11:52:56;;;;;;;6.10;4.00;;;18.90;1.00;;;;;;5014776;28;20412;-81
2022/04/17 11:55:24;;;;;;;7.68;3.85;;;19.50;1.00;;;;;;5014091;28;20501;-81
2022/04/17 11:57:49;;;;;;;5.97;3.40;;;19.10;1.00;;;;;;5014893;28;20057;-81
2022/04/17 12:00:15;;;;;;;8.45;3.92;;;19.20;1.00;;;;;;5014537;28;20504;-81
2022/04/17 12:02:40;;;;;;;5.25;3.17;;;19.60;1.00;;;;;;5014234;28;20551;-81
2022/04/17 12:05:09;;;;;;;7.63;3.80;;;19.30;1.00;;;;;;5014222;28;20129;-81
2022/04/17 12:07:35;;;;;;;7.60;3.83;;;19.50;1.00;;;;;;5014045;28;20073;-81
2022/04/17 12:10:09;;;;;;;8.82;4.53;;;19.90;1.00;;;;;;5012841;28;20084;-82
2022/04/17 12:12:41;;;;;;;7.55;4.72;;;20.40;1.00;;;;;;4996888;28;20085;-81
2022/04/17 12:15:13;;;;;;;6.95;4.28;;;20.10;1.00;;;;;;5013332;28;20065;-81
2022/04/17 12:17:39;;;;;;;7.45;4.25;;;19.60;1.00;;;;;;5014136;28;20049;-81
2022/04/17 12:20:10;;;;;;;7.70;4.25;;;19.60;1.00;;;;;;5012679;28;20042;-81
2022/04/17 12:22:39;;;;;;;9.23;4.43;;;19.60;1.00;;;;;;5012729;28;20054;-81
2022/04/17 12:25:16;;;;;;;7.10;4.05;;;20.00;1.00;;;;;;5013767;28;20046;-81
2022/04/17 12:27:44;;;;;;;6.97;4.50;;;20.40;1.00;;;;;;5014241;28;20392;-82
2022/04/17 12:30:10;;;;;;;6.20;3.95;;;20.80;1.00;;;;;;5013578;28;20752;-81
2022/04/17 12:32:44;;;;;;;7.43;4.22;;;20.90;1.00;;;;;;5013537;28;20121;-82
2022/04/17 12:35:13;;;;;;;7.57;4.63;;;21.10;1.00;;;;;;5012387;28;20175;-82
2022/04/17 12:37:39;;;;;;;7.60;4.45;;;20.70;1.00;;;;;;5013486;28;20484;-82
2022/04/17 12:40:20;;;;;;;8.27;3.70;;;20.00;1.00;;;;;;5013699;28;20038;-81
2022/04/17 12:42:46;;;;;;;6.80;4.20;;;20.10;1.00;;;;;;5013398;28;20060;-81
2022/04/17 12:45:24;;;;;;;6.15;4.20;;;20.00;1.00;;;;;;5012078;28;20062;-81
2022/04/17 12:48:04;;;;;;;8.23;4.50;;;20.80;1.00;;;;;;5012180;28;20054;-82
2022/04/17 12:50:30;;;;;;;6.53;4.65;;;21.80;1.00;;;;;;5013076;28;20038;-83
2022/04/17 12:52:57;;;;;;;8.35;4.50;;;21.80;1.00;;;;;;5013492;28;20121;-82
2022/04/17 12:55:30;;;;;;;6.13;4.25;;;21.40;1.00;;;;;;5012942;28;20445;-82
2022/04/17 12:57:56;;;;;;;11.93;4.50;;;21.90;1.00;;;;;;5012038;28;20048;-82
2022/04/17 13:00:26;;;;;;;6.75;4.30;;;22.10;1.00;;;;;;5013305;28;20065;-81
2022/04/17 13:03:14;;;;;;;6.20;3.88;;;21.10;1.00;;;;;;5013495;28;20404;-81